sensor_id;sensor_type;location;lat;lon;timestamp;P1;durP1;ratioP1;P2;durP2;ratioP2
34505;SDS011;20748;42.632;23.198;2022-12-24T00:02:15;68.72;;;21.50;;
34505;SDS011;20748;42.632;23.198;2022-12-24T00:04:47;55.90;;;20.20;;
34505;SDS011;20748;42.632;23.198;2022-12-24T00:07:19;45.40;;;17.40;;
34505;SDS011;20748;42.632;23.198;2022-12-24T00:09:52;87.28;;;32.25;;
34505;SDS011;20748;42.632;23.198;2022-12-24T00:12:25;110.50;;;34.25;;
34505;SDS011;20748;42.632;23.198;2022-12-24T00:14:57;94.72;;;32.88;;
34505;SDS011;20748;42.632;23.198;2022-12-24T00:17:30;46.90;;;15.15;;
34505;SDS011;20748;42.632;23.198;2022-12-24T00:20:02;30.67;;;12.25;;
34505;SDS011;20748;42.632;23.198;2022-12-24T00:22:35;30.65;;;12.25;;
34505;SDS011;20748;42.632;23.198;2022-12-24T00:25:08;36.08;;;13.75;;
34505;SDS011;20748;42.632;23.198;2022-12-24T00:27:41;38.63;;;17.55;;
34505;SDS011;20748;42.632;23.198;2022-12-24T00:30:13;36.45;;;17.67;;
34505;SDS011;20748;42.632;23.198;2022-12-24T00:32:46;37.10;;;17.10;;
34505;SDS011;20748;42.632;23.198;2022-12-24T00:35:18;33.78;;;15.95;;
34505;SDS011;20748;42.632;23.198;2022-12-24T00:37:50;49.15;;;19.75;;
34505;SDS011;20748;42.632;23.198;2022-12-24T00:40:23;44.47;;;17.42;;
34505;SDS011;20748;42.632;23.198;2022-12-24T00:42:56;41.22;;;14.90;;
34505;SDS011;20748;42.632;23.198;2022-12-24T00:45:28;36.28;;;14.23;;
34505;SDS011;20748;42.632;23.198;2022-12-24T00:48:01;29.17;;;13.68;;
34505;SDS011;20748;42.632;23.198;2022-12-24T00:50:33;40.92;;;15.15;;
34505;SDS011;20748;42.632;23.198;2022-12-24T00:53:06;30.48;;;13.25;;
34505;SDS011;20748;42.632;23.198;2022-12-24T00:55:39;24.58;;;10.23;;
34505;SDS011;20748;42.632;23.198;2022-12-24T00:58:11;19.10;;;10.27;;
34505;SDS011;20748;42.632;23.198;2022-12-24T01:00:44;16.38;;;8.27;;
34505;SDS011;20748;42.632;23.198;2022-12-24T01:03:16;29.42;;;11.93;;
34505;SDS011;20748;42.632;23.198;2022-12-24T01:05:50;25.02;;;11.98;;
34505;SDS011;20748;42.632;23.198;2022-12-24T01:08:22;31.35;;;14.68;;
34505;SDS011;20748;42.632;23.198;2022-12-24T01:10:55;27.33;;;16.98;;
34505;SDS011;20748;42.632;23.198;2022-12-24T01:13:27;29.05;;;16.25;;
34505;SDS011;20748;42.632;23.198;2022-12-24T01:16:00;19.45;;;11.40;;
34505;SDS011;20748;42.632;23.198;2022-12-24T01:18:33;17.95;;;9.05;;
34505;SDS011;20748;42.632;23.198;2022-12-24T01:21:06;20.20;;;10.60;;
34505;SDS011;20748;42.632;23.198;2022-12-24T01:23:38;20.38;;;9.35;;
34505;SDS011;20748;42.632;23.198;2022-12-24T01:26:11;30.15;;;10.85;;
34505;SDS011;20748;42.632;23.198;2022-12-24T01:28:43;23.85;;;10.23;;
34505;SDS011;20748;42.632;23.198;2022-12-24T01:31:16;15.48;;;7.63;;
34505;SDS011;20748;42.632;23.198;2022-12-24T01:33:50;18.30;;;6.95;;
34505;SDS011;20748;42.632;23.198;2022-12-24T01:36:22;9.98;;;4.28;;
34505;SDS011;20748;42.632;23.198;2022-12-24T01:38:54;8.70;;;3.80;;
34505;SDS011;20748;42.632;23.198;2022-12-24T01:41:29;6.57;;;3.13;;
34505;SDS011;20748;42.632;23.198;2022-12-24T01:44:22;7.93;;;2.22;;
34505;SDS011;20748;42.632;23.198;2022-12-24T01:47:07;6.80;;;2.40;;
34505;SDS011;20748;42.632;23.198;2022-12-24T01:49:44;6.32;;;3.05;;
34505;SDS011;20748;42.632;23.198;2022-12-24T01:52:21;5.10;;;2.97;;
34505;SDS011;20748;42.632;23.198;2022-12-24T01:54:57;5.10;;;2.47;;
34505;SDS011;20748;42.632;23.198;2022-12-24T01:57:36;12.73;;;3.55;;
34505;SDS011;20748;42.632;23.198;2022-12-24T02:00:12;6.95;;;3.80;;
34505;SDS011;20748;42.632;23.198;2022-12-24T02:02:46;5.68;;;3.40;;
34505;SDS011;20748;42.632;23.198;2022-12-24T02:05:22;7.45;;;3.45;;
34505;SDS011;20748;42.632;23.198;2022-12-24T02:07:59;13.00;;;4.72;;
34505;SDS011;20748;42.632;23.198;2022-12-24T02:10:34;10.38;;;6.72;;
34505;SDS011;20748;42.632;23.198;2022-12-24T02:13:07;16.77;;;8.93;;
34505;SDS011;20748;42.632;23.198;2022-12-24T02:15:47;10.23;;;6.57;;
34505;SDS011;20748;42.632;23.198;2022-12-24T02:18:32;11.07;;;6.78;;
34505;SDS011;20748;42.632;23.198;2022-12-24T02:24:19;9.75;;;5.57;;
34505;SDS011;20748;42.632;23.198;2022-12-24T02:30:03;8.93;;;6.47;;
34505;SDS011;20748;42.632;23.198;2022-12-24T02:32:46;12.52;;;7.13;;
34505;SDS011;20748;42.632;23.198;2022-12-24T02:35:42;8.65;;;4.75;;
34505;SDS011;20748;42.632;23.198;2022-12-24T02:38:21;6.53;;;4.75;;
34505;SDS011;20748;42.632;23.198;2022-12-24T02:40:58;8.95;;;4.15;;
34505;SDS011;20748;42.632;23.198;2022-12-24T02:43:34;6.88;;;3.05;;
34505;SDS011;20748;42.632;23.198;2022-12-24T02:46:10;7.07;;;3.30;;
34505;SDS011;20748;42.632;23.198;2022-12-24T02:48:45;5.30;;;3.08;;
34505;SDS011;20748;42.632;23.198;2022-12-24T02:51:20;8.07;;;4.45;;
34505;SDS011;20748;42.632;23.198;2022-12-24T02:53:54;7.63;;;3.65;;
34505;SDS011;20748;42.632;23.198;2022-12-24T02:56:38;5.10;;;3.13;;
34505;SDS011;20748;42.632;23.198;2022-12-24T02:59:32;5.40;;;3.50;;
34505;SDS011;20748;42.632;23.198;2022-12-24T03:02:17;8.45;;;3.58;;
34505;SDS011;20748;42.632;23.198;2022-12-24T03:04:58;18.13;;;5.05;;
34505;SDS011;20748;42.632;23.198;2022-12-24T03:07:42;13.80;;;5.63;;
34505;SDS011;20748;42.632;23.198;2022-12-24T03:10:22;11.77;;;4.95;;
34505;SDS011;20748;42.632;23.198;2022-12-24T03:13:01;9.98;;;4.72;;
34505;SDS011;20748;42.632;23.198;2022-12-24T03:15:37;11.70;;;5.20;;
34505;SDS011;20748;42.632;23.198;2022-12-24T03:18:11;8.88;;;3.63;;
34505;SDS011;20748;42.632;23.198;2022-12-24T03:20:48;8.18;;;3.92;;
34505;SDS011;20748;42.632;23.198;2022-12-24T03:23:25;6.97;;;4.13;;
34505;SDS011;20748;42.632;23.198;2022-12-24T03:25:58;10.32;;;5.30;;
34505;SDS011;20748;42.632;23.198;2022-12-24T03:28:32;12.25;;;3.72;;
34505;SDS011;20748;42.632;23.198;2022-12-24T03:31:05;10.32;;;3.63;;
34505;SDS011;20748;42.632;23.198;2022-12-24T03:33:40;8.32;;;2.75;;
34505;SDS011;20748;42.632;23.198;2022-12-24T03:36:13;16.15;;;4.35;;
34505;SDS011;20748;42.632;23.198;2022-12-24T03:38:45;9.95;;;3.70;;
34505;SDS011;20748;42.632;23.198;2022-12-24T03:41:17;12.80;;;4.90;;
34505;SDS011;20748;42.632;23.198;2022-12-24T03:43:50;10.07;;;5.50;;
34505;SDS011;20748;42.632;23.198;2022-12-24T03:46:22;13.82;;;4.95;;
34505;SDS011;20748;42.632;23.198;2022-12-24T03:48:55;8.32;;;4.78;;
34505;SDS011;20748;42.632;23.198;2022-12-24T03:51:29;15.38;;;5.65;;
34505;SDS011;20748;42.632;23.198;2022-12-24T03:54:03;11.93;;;5.00;;
34505;SDS011;20748;42.632;23.198;2022-12-24T03:56:36;11.40;;;5.38;;
34505;SDS011;20748;42.632;23.198;2022-12-24T03:59:08;12.48;;;5.20;;
34505;SDS011;20748;42.632;23.198;2022-12-24T04:01:40;8.48;;;4.07;;
34505;SDS011;20748;42.632;23.198;2022-12-24T04:04:14;9.68;;;3.97;;
34505;SDS011;20748;42.632;23.198;2022-12-24T04:06:46;11.07;;;3.85;;
34505;SDS011;20748;42.632;23.198;2022-12-24T04:09:18;5.80;;;2.78;;
34505;SDS011;20748;42.632;23.198;2022-12-24T04:11:51;5.68;;;3.28;;
34505;SDS011;20748;42.632;23.198;2022-12-24T04:14:23;11.27;;;4.35;;
34505;SDS011;20748;42.632;23.198;2022-12-24T04:16:56;10.38;;;5.10;;
34505;SDS011;20748;42.632;23.198;2022-12-24T04:19:29;7.03;;;3.97;;
34505;SDS011;20748;42.632;23.198;2022-12-24T04:22:01;8.38;;;4.20;;
34505;SDS011;20748;42.632;23.198;2022-12-24T04:24:33;15.50;;;5.80;;
34505;SDS011;20748;42.632;23.198;2022-12-24T04:27:06;14.02;;;6.05;;
34505;SDS011;20748;42.632;23.198;2022-12-24T04:29:38;11.38;;;5.35;;
34505;SDS011;20748;42.632;23.198;2022-12-24T04:32:10;14.15;;;5.25;;
34505;SDS011;20748;42.632;23.198;2022-12-24T04:34:44;16.27;;;6.32;;
34505;SDS011;20748;42.632;23.198;2022-12-24T04:37:16;21.92;;;6.88;;
34505;SDS011;20748;42.632;23.198;2022-12-24T04:39:48;21.13;;;7.50;;
34505;SDS011;20748;42.632;23.198;2022-12-24T04:42:21;12.80;;;5.00;;
34505;SDS011;20748;42.632;23.198;2022-12-24T04:44:53;12.98;;;5.95;;
34505;SDS011;20748;42.632;23.198;2022-12-24T04:47:25;12.43;;;5.45;;
34505;SDS011;20748;42.632;23.198;2022-12-24T04:49:58;18.77;;;7.03;;
34505;SDS011;20748;42.632;23.198;2022-12-24T04:52:32;21.50;;;7.07;;
34505;SDS011;20748;42.632;23.198;2022-12-24T04:55:05;11.25;;;5.13;;
34505;SDS011;20748;42.632;23.198;2022-12-24T04:57:38;11.55;;;4.93;;
34505;SDS011;20748;42.632;23.198;2022-12-24T05:00:11;7.57;;;4.05;;
34505;SDS011;20748;42.632;23.198;2022-12-24T05:02:43;9.98;;;4.65;;
34505;SDS011;20748;42.632;23.198;2022-12-24T05:05:17;11.45;;;4.38;;
34505;SDS011;20748;42.632;23.198;2022-12-24T05:07:49;11.65;;;4.43;;
34505;SDS011;20748;42.632;23.198;2022-12-24T05:10:21;11.07;;;4.43;;
34505;SDS011;20748;42.632;23.198;2022-12-24T05:12:54;9.52;;;4.70;;
34505;SDS011;20748;42.632;23.198;2022-12-24T05:15:26;8.32;;;4.20;;
34505;SDS011;20748;42.632;23.198;2022-12-24T05:17:58;17.17;;;4.88;;
34505;SDS011;20748;42.632;23.198;2022-12-24T05:20:32;10.05;;;4.15;;
34505;SDS011;20748;42.632;23.198;2022-12-24T05:23:04;10.10;;;5.03;;
34505;SDS011;20748;42.632;23.198;2022-12-24T05:25:57;8.52;;;5.28;;
34505;SDS011;20748;42.632;23.198;2022-12-24T05:28:48;11.90;;;5.18;;
34505;SDS011;20748;42.632;23.198;2022-12-24T05:31:21;11.45;;;6.60;;
34505;SDS011;20748;42.632;23.198;2022-12-24T05:33:55;15.82;;;9.05;;
34505;SDS011;20748;42.632;23.198;2022-12-24T05:36:28;14.88;;;8.15;;
34505;SDS011;20748;42.632;23.198;2022-12-24T05:39:00;33.78;;;12.82;;
34505;SDS011;20748;42.632;23.198;2022-12-24T05:41:33;30.65;;;13.35;;
34505;SDS011;20748;42.632;23.198;2022-12-24T05:44:05;38.63;;;14.38;;
34505;SDS011;20748;42.632;23.198;2022-12-24T05:46:37;45.95;;;15.93;;
34505;SDS011;20748;42.632;23.198;2022-12-24T05:49:10;36.08;;;12.70;;
34505;SDS011;20748;42.632;23.198;2022-12-24T05:51:43;30.60;;;9.60;;
34505;SDS011;20748;42.632;23.198;2022-12-24T05:54:16;23.13;;;9.75;;
34505;SDS011;20748;42.632;23.198;2022-12-24T05:56:48;22.17;;;7.05;;
34505;SDS011;20748;42.632;23.198;2022-12-24T05:59:20;16.98;;;6.55;;
34505;SDS011;20748;42.632;23.198;2022-12-24T06:01:53;15.15;;;7.15;;
34505;SDS011;20748;42.632;23.198;2022-12-24T06:04:25;13.40;;;6.57;;
34505;SDS011;20748;42.632;23.198;2022-12-24T06:07:01;15.77;;;7.28;;
34505;SDS011;20748;42.632;23.198;2022-12-24T06:09:33;30.40;;;7.32;;
34505;SDS011;20748;42.632;23.198;2022-12-24T06:12:06;18.67;;;8.65;;
34505;SDS011;20748;42.632;23.198;2022-12-24T06:14:38;22.38;;;7.65;;
34505;SDS011;20748;42.632;23.198;2022-12-24T06:17:11;24.27;;;10.95;;
34505;SDS011;20748;42.632;23.198;2022-12-24T06:19:43;18.40;;;8.70;;
34505;SDS011;20748;42.632;23.198;2022-12-24T06:22:16;10.75;;;5.70;;
34505;SDS011;20748;42.632;23.198;2022-12-24T06:24:48;16.20;;;7.35;;
34505;SDS011;20748;42.632;23.198;2022-12-24T06:27:21;11.80;;;6.32;;
34505;SDS011;20748;42.632;23.198;2022-12-24T06:29:53;11.95;;;5.95;;
34505;SDS011;20748;42.632;23.198;2022-12-24T06:32:26;13.35;;;7.75;;
34505;SDS011;20748;42.632;23.198;2022-12-24T06:34:58;19.05;;;7.00;;
34505;SDS011;20748;42.632;23.198;2022-12-24T06:37:31;17.70;;;7.82;;
34505;SDS011;20748;42.632;23.198;2022-12-24T06:40:04;28.55;;;11.40;;
34505;SDS011;20748;42.632;23.198;2022-12-24T06:42:37;20.80;;;10.43;;
34505;SDS011;20748;42.632;23.198;2022-12-24T06:45:09;27.75;;;13.55;;
34505;SDS011;20748;42.632;23.198;2022-12-24T06:47:42;26.73;;;13.05;;
34505;SDS011;20748;42.632;23.198;2022-12-24T06:50:14;32.78;;;14.07;;
34505;SDS011;20748;42.632;23.198;2022-12-24T06:52:47;25.80;;;10.93;;
34505;SDS011;20748;42.632;23.198;2022-12-24T06:55:20;27.05;;;11.43;;
34505;SDS011;20748;42.632;23.198;2022-12-24T06:57:52;24.42;;;11.57;;
34505;SDS011;20748;42.632;23.198;2022-12-24T07:00:25;20.77;;;9.73;;
34505;SDS011;20748;42.632;23.198;2022-12-24T07:02:57;21.15;;;10.05;;
34505;SDS011;20748;42.632;23.198;2022-12-24T07:05:30;27.27;;;10.68;;
34505;SDS011;20748;42.632;23.198;2022-12-24T07:08:03;17.30;;;9.25;;
34505;SDS011;20748;42.632;23.198;2022-12-24T07:10:36;16.58;;;8.18;;
34505;SDS011;20748;42.632;23.198;2022-12-24T07:13:08;23.15;;;11.07;;
34505;SDS011;20748;42.632;23.198;2022-12-24T07:15:40;26.20;;;12.55;;
34505;SDS011;20748;42.632;23.198;2022-12-24T07:18:13;26.50;;;12.73;;
34505;SDS011;20748;42.632;23.198;2022-12-24T07:20:46;24.00;;;10.73;;
34505;SDS011;20748;42.632;23.198;2022-12-24T07:23:19;27.95;;;13.15;;
34505;SDS011;20748;42.632;23.198;2022-12-24T07:25:51;25.17;;;14.20;;
34505;SDS011;20748;42.632;23.198;2022-12-24T07:28:24;41.97;;;20.30;;
34505;SDS011;20748;42.632;23.198;2022-12-24T07:30:59;44.20;;;21.20;;
34505;SDS011;20748;42.632;23.198;2022-12-24T07:33:32;33.30;;;15.23;;
34505;SDS011;20748;42.632;23.198;2022-12-24T07:36:05;29.90;;;14.52;;
34505;SDS011;20748;42.632;23.198;2022-12-24T07:38:40;33.75;;;17.38;;
34505;SDS011;20748;42.632;23.198;2022-12-24T07:41:13;47.10;;;21.85;;
34505;SDS011;20748;42.632;23.198;2022-12-24T07:43:45;50.95;;;21.20;;
34505;SDS011;20748;42.632;23.198;2022-12-24T07:46:18;79.55;;;32.83;;
34505;SDS011;20748;42.632;23.198;2022-12-24T07:48:50;64.53;;;25.35;;
34505;SDS011;20748;42.632;23.198;2022-12-24T07:51:23;44.10;;;18.63;;
34505;SDS011;20748;42.632;23.198;2022-12-24T07:53:56;28.23;;;15.25;;
34505;SDS011;20748;42.632;23.198;2022-12-24T07:56:28;39.38;;;20.17;;
34505;SDS011;20748;42.632;23.198;2022-12-24T07:59:01;55.83;;;26.73;;
34505;SDS011;20748;42.632;23.198;2022-12-24T08:01:33;67.63;;;32.58;;
34505;SDS011;20748;42.632;23.198;2022-12-24T08:04:06;51.55;;;26.90;;
34505;SDS011;20748;42.632;23.198;2022-12-24T08:06:39;45.63;;;22.05;;
34505;SDS011;20748;42.632;23.198;2022-12-24T08:09:12;58.53;;;27.88;;
34505;SDS011;20748;42.632;23.198;2022-12-24T08:11:45;84.32;;;39.03;;
34505;SDS011;20748;42.632;23.198;2022-12-24T08:14:23;66.75;;;33.05;;
34505;SDS011;20748;42.632;23.198;2022-12-24T08:16:56;44.58;;;21.58;;
34505;SDS011;20748;42.632;23.198;2022-12-24T08:19:28;43.40;;;20.45;;
34505;SDS011;20748;42.632;23.198;2022-12-24T08:22:00;27.63;;;15.77;;
34505;SDS011;20748;42.632;23.198;2022-12-24T08:24:34;27.40;;;15.55;;
34505;SDS011;20748;42.632;23.198;2022-12-24T08:27:07;35.30;;;18.38;;
34505;SDS011;20748;42.632;23.198;2022-12-24T08:29:40;42.97;;;21.10;;
34505;SDS011;20748;42.632;23.198;2022-12-24T08:32:12;51.47;;;23.88;;
34505;SDS011;20748;42.632;23.198;2022-12-24T08:34:45;46.55;;;22.67;;
34505;SDS011;20748;42.632;23.198;2022-12-24T08:37:17;59.70;;;28.70;;
34505;SDS011;20748;42.632;23.198;2022-12-24T08:39:50;57.05;;;27.00;;
34505;SDS011;20748;42.632;23.198;2022-12-24T08:42:22;54.55;;;27.80;;
34505;SDS011;20748;42.632;23.198;2022-12-24T08:44:55;57.28;;;27.17;;
34505;SDS011;20748;42.632;23.198;2022-12-24T08:47:27;40.47;;;22.48;;
34505;SDS011;20748;42.632;23.198;2022-12-24T08:50:00;49.83;;;24.30;;
34505;SDS011;20748;42.632;23.198;2022-12-24T08:52:32;66.05;;;28.38;;
34505;SDS011;20748;42.632;23.198;2022-12-24T08:55:06;36.65;;;17.55;;
34505;SDS011;20748;42.632;23.198;2022-12-24T08:57:39;27.30;;;13.98;;
34505;SDS011;20748;42.632;23.198;2022-12-24T09:00:11;46.42;;;23.63;;
34505;SDS011;20748;42.632;23.198;2022-12-24T09:02:44;64.15;;;30.02;;
34505;SDS011;20748;42.632;23.198;2022-12-24T09:05:17;56.70;;;24.23;;
34505;SDS011;20748;42.632;23.198;2022-12-24T09:07:50;44.55;;;21.70;;
34505;SDS011;20748;42.632;23.198;2022-12-24T09:10:23;27.23;;;15.32;;
34505;SDS011;20748;42.632;23.198;2022-12-24T09:12:55;30.17;;;14.65;;
34505;SDS011;20748;42.632;23.198;2022-12-24T09:15:28;34.35;;;16.25;;
34505;SDS011;20748;42.632;23.198;2022-12-24T09:18:00;29.08;;;16.13;;
34505;SDS011;20748;42.632;23.198;2022-12-24T09:20:33;36.88;;;19.33;;
34505;SDS011;20748;42.632;23.198;2022-12-24T09:23:05;35.13;;;16.23;;
34505;SDS011;20748;42.632;23.198;2022-12-24T09:25:40;29.75;;;15.45;;
34505;SDS011;20748;42.632;23.198;2022-12-24T09:28:12;41.40;;;18.90;;
34505;SDS011;20748;42.632;23.198;2022-12-24T09:30:50;30.35;;;16.13;;
34505;SDS011;20748;42.632;23.198;2022-12-24T09:33:26;33.92;;;15.55;;
34505;SDS011;20748;42.632;23.198;2022-12-24T09:36:00;35.22;;;17.17;;
34505;SDS011;20748;42.632;23.198;2022-12-24T09:38:32;35.20;;;16.17;;
34505;SDS011;20748;42.632;23.198;2022-12-24T09:41:13;27.83;;;13.25;;
34505;SDS011;20748;42.632;23.198;2022-12-24T09:43:54;70.22;;;27.73;;
34505;SDS011;20748;42.632;23.198;2022-12-24T09:46:32;36.30;;;17.90;;
34505;SDS011;20748;42.632;23.198;2022-12-24T09:49:08;39.75;;;16.85;;
34505;SDS011;20748;42.632;23.198;2022-12-24T09:51:46;35.15;;;17.88;;
34505;SDS011;20748;42.632;23.198;2022-12-24T09:54:23;37.67;;;18.25;;
34505;SDS011;20748;42.632;23.198;2022-12-24T09:57:00;33.45;;;14.95;;
34505;SDS011;20748;42.632;23.198;2022-12-24T09:59:45;36.15;;;17.85;;
34505;SDS011;20748;42.632;23.198;2022-12-24T10:02:25;40.30;;;20.77;;
34505;SDS011;20748;42.632;23.198;2022-12-24T10:04:58;36.35;;;17.83;;
34505;SDS011;20748;42.632;23.198;2022-12-24T10:07:33;42.17;;;20.30;;
34505;SDS011;20748;42.632;23.198;2022-12-24T10:10:19;31.05;;;15.93;;
34505;SDS011;20748;42.632;23.198;2022-12-24T10:13:01;31.73;;;16.98;;
34505;SDS011;20748;42.632;23.198;2022-12-24T10:15:40;29.45;;;13.75;;
34505;SDS011;20748;42.632;23.198;2022-12-24T10:18:23;32.10;;;16.85;;
34505;SDS011;20748;42.632;23.198;2022-12-24T10:21:04;24.23;;;13.60;;
34505;SDS011;20748;42.632;23.198;2022-12-24T10:23:44;26.13;;;13.70;;
34505;SDS011;20748;42.632;23.198;2022-12-24T10:26:25;34.50;;;15.52;;
34505;SDS011;20748;42.632;23.198;2022-12-24T10:29:09;33.10;;;16.00;;
34505;SDS011;20748;42.632;23.198;2022-12-24T10:31:49;37.20;;;17.02;;
34505;SDS011;20748;42.632;23.198;2022-12-24T10:34:26;35.33;;;15.05;;
34505;SDS011;20748;42.632;23.198;2022-12-24T10:37:01;31.90;;;13.85;;
34505;SDS011;20748;42.632;23.198;2022-12-24T10:39:34;29.60;;;14.40;;
34505;SDS011;20748;42.632;23.198;2022-12-24T10:42:07;33.42;;;14.90;;
34505;SDS011;20748;42.632;23.198;2022-12-24T10:44:42;31.98;;;15.80;;
34505;SDS011;20748;42.632;23.198;2022-12-24T10:47:20;28.60;;;15.63;;
34505;SDS011;20748;42.632;23.198;2022-12-24T10:49:56;40.58;;;18.90;;
34505;SDS011;20748;42.632;23.198;2022-12-24T10:52:34;33.13;;;17.17;;
34505;SDS011;20748;42.632;23.198;2022-12-24T10:55:20;29.77;;;15.10;;
34505;SDS011;20748;42.632;23.198;2022-12-24T10:57:59;32.45;;;15.85;;
34505;SDS011;20748;42.632;23.198;2022-12-24T11:00:34;48.70;;;17.77;;
34505;SDS011;20748;42.632;23.198;2022-12-24T11:03:19;40.95;;;19.50;;
34505;SDS011;20748;42.632;23.198;2022-12-24T11:05:58;33.22;;;16.52;;
34505;SDS011;20748;42.632;23.198;2022-12-24T11:08:33;35.25;;;15.48;;
34505;SDS011;20748;42.632;23.198;2022-12-24T11:11:07;48.65;;;19.70;;
34505;SDS011;20748;42.632;23.198;2022-12-24T11:13:44;40.65;;;20.55;;
34505;SDS011;20748;42.632;23.198;2022-12-24T11:16:24;31.60;;;18.17;;
34505;SDS011;20748;42.632;23.198;2022-12-24T11:19:00;40.72;;;16.92;;
34505;SDS011;20748;42.632;23.198;2022-12-24T11:21:35;33.42;;;18.10;;
34505;SDS011;20748;42.632;23.198;2022-12-24T11:24:16;30.60;;;16.58;;
34505;SDS011;20748;42.632;23.198;2022-12-24T11:30:09;29.27;;;13.38;;
34505;SDS011;20748;42.632;23.198;2022-12-24T11:32:50;27.83;;;14.02;;
34505;SDS011;20748;42.632;23.198;2022-12-24T11:35:53;37.10;;;18.65;;
34505;SDS011;20748;42.632;23.198;2022-12-24T11:38:31;35.42;;;17.27;;
34505;SDS011;20748;42.632;23.198;2022-12-24T11:41:06;26.35;;;13.70;;
34505;SDS011;20748;42.632;23.198;2022-12-24T11:43:41;24.95;;;13.70;;
34505;SDS011;20748;42.632;23.198;2022-12-24T11:46:20;23.23;;;11.93;;
34505;SDS011;20748;42.632;23.198;2022-12-24T11:49:15;22.10;;;10.60;;
34505;SDS011;20748;42.632;23.198;2022-12-24T11:57:49;19.67;;;10.98;;
34505;SDS011;20748;42.632;23.198;2022-12-24T12:00:28;22.40;;;12.75;;
34505;SDS011;20748;42.632;23.198;2022-12-24T12:03:01;23.27;;;10.77;;
34505;SDS011;20748;42.632;23.198;2022-12-24T12:05:35;26.73;;;11.07;;
34505;SDS011;20748;42.632;23.198;2022-12-24T12:08:12;24.38;;;12.75;;
34505;SDS011;20748;42.632;23.198;2022-12-24T12:13:25;23.10;;;11.55;;
34505;SDS011;20748;42.632;23.198;2022-12-24T12:16:05;24.75;;;12.40;;
34505;SDS011;20748;42.632;23.198;2022-12-24T12:18:46;24.95;;;11.35;;
34505;SDS011;20748;42.632;23.198;2022-12-24T12:21:25;25.95;;;12.15;;
34505;SDS011;20748;42.632;23.198;2022-12-24T12:24:03;19.90;;;10.45;;
34505;SDS011;20748;42.632;23.198;2022-12-24T12:26:41;24.65;;;11.50;;
34505;SDS011;20748;42.632;23.198;2022-12-24T12:29:20;27.08;;;11.88;;
34505;SDS011;20748;42.632;23.198;2022-12-24T12:31:58;23.40;;;11.75;;
34505;SDS011;20748;42.632;23.198;2022-12-24T12:34:35;19.23;;;10.38;;
34505;SDS011;20748;42.632;23.198;2022-12-24T12:37:13;25.13;;;11.30;;
34505;SDS011;20748;42.632;23.198;2022-12-24T12:39:52;22.00;;;11.10;;
34505;SDS011;20748;42.632;23.198;2022-12-24T12:42:27;21.83;;;11.07;;
34505;SDS011;20748;42.632;23.198;2022-12-24T12:45:14;42.25;;;20.02;;
34505;SDS011;20748;42.632;23.198;2022-12-24T12:48:07;54.30;;;24.77;;
34505;SDS011;20748;42.632;23.198;2022-12-24T12:51:01;33.60;;;18.83;;
34505;SDS011;20748;42.632;23.198;2022-12-24T12:53:42;24.90;;;13.95;;
34505;SDS011;20748;42.632;23.198;2022-12-24T12:56:27;26.40;;;13.77;;
34505;SDS011;20748;42.632;23.198;2022-12-24T12:59:02;29.17;;;14.00;;
34505;SDS011;20748;42.632;23.198;2022-12-24T13:01:45;33.40;;;14.93;;
34505;SDS011;20748;42.632;23.198;2022-12-24T13:07:49;24.25;;;12.88;;
34505;SDS011;20748;42.632;23.198;2022-12-24T13:10:41;26.73;;;15.13;;
34505;SDS011;20748;42.632;23.198;2022-12-24T13:13:38;31.13;;;14.75;;
34505;SDS011;20748;42.632;23.198;2022-12-24T13:19:41;32.10;;;17.77;;
34505;SDS011;20748;42.632;23.198;2022-12-24T13:22:28;31.52;;;16.60;;
34505;SDS011;20748;42.632;23.198;2022-12-24T13:25:01;27.10;;;14.95;;
34505;SDS011;20748;42.632;23.198;2022-12-24T13:27:34;22.73;;;11.75;;
34505;SDS011;20748;42.632;23.198;2022-12-24T13:30:13;30.05;;;15.55;;
34505;SDS011;20748;42.632;23.198;2022-12-24T13:33:08;61.05;;;21.38;;
34505;SDS011;20748;42.632;23.198;2022-12-24T13:35:58;49.50;;;21.35;;
34505;SDS011;20748;42.632;23.198;2022-12-24T13:38:39;55.13;;;24.15;;
34505;SDS011;20748;42.632;23.198;2022-12-24T13:44:29;64.22;;;29.58;;
34505;SDS011;20748;42.632;23.198;2022-12-24T13:47:17;47.13;;;24.15;;
34505;SDS011;20748;42.632;23.198;2022-12-24T13:50:11;39.85;;;20.90;;
34505;SDS011;20748;42.632;23.198;2022-12-24T13:52:55;40.30;;;19.85;;
34505;SDS011;20748;42.632;23.198;2022-12-24T13:55:28;47.20;;;22.00;;
34505;SDS011;20748;42.632;23.198;2022-12-24T13:58:01;40.97;;;22.30;;
34505;SDS011;20748;42.632;23.198;2022-12-24T14:00:37;47.17;;;20.17;;
34505;SDS011;20748;42.632;23.198;2022-12-24T14:03:17;38.30;;;17.58;;
34505;SDS011;20748;42.632;23.198;2022-12-24T14:05:55;33.17;;;18.20;;
34505;SDS011;20748;42.632;23.198;2022-12-24T14:08:32;46.03;;;22.15;;
34505;SDS011;20748;42.632;23.198;2022-12-24T14:11:09;52.90;;;25.00;;
34505;SDS011;20748;42.632;23.198;2022-12-24T14:13:51;36.38;;;17.77;;
34505;SDS011;20748;42.632;23.198;2022-12-24T14:16:41;32.95;;;18.58;;
34505;SDS011;20748;42.632;23.198;2022-12-24T14:19:18;30.40;;;16.58;;
34505;SDS011;20748;42.632;23.198;2022-12-24T14:21:54;29.83;;;14.57;;
34505;SDS011;20748;42.632;23.198;2022-12-24T14:24:33;31.57;;;16.60;;
34505;SDS011;20748;42.632;23.198;2022-12-24T14:27:11;19.85;;;12.52;;
34505;SDS011;20748;42.632;23.198;2022-12-24T14:29:49;30.65;;;15.40;;
34505;SDS011;20748;42.632;23.198;2022-12-24T14:32:24;48.50;;;22.08;;
34505;SDS011;20748;42.632;23.198;2022-12-24T14:35:07;61.33;;;28.52;;
34505;SDS011;20748;42.632;23.198;2022-12-24T14:37:46;65.50;;;29.63;;
34505;SDS011;20748;42.632;23.198;2022-12-24T14:40:24;32.33;;;16.10;;
34505;SDS011;20748;42.632;23.198;2022-12-24T14:43:00;14.45;;;8.50;;
34505;SDS011;20748;42.632;23.198;2022-12-24T14:45:41;15.40;;;8.70;;
34505;SDS011;20748;42.632;23.198;2022-12-24T14:48:21;12.02;;;6.40;;
34505;SDS011;20748;42.632;23.198;2022-12-24T14:51:03;23.52;;;10.90;;
34505;SDS011;20748;42.632;23.198;2022-12-24T14:53:45;28.77;;;13.18;;
34505;SDS011;20748;42.632;23.198;2022-12-24T14:56:29;26.15;;;13.60;;
34505;SDS011;20748;42.632;23.198;2022-12-24T14:59:12;31.77;;;16.42;;
34505;SDS011;20748;42.632;23.198;2022-12-24T15:01:46;70.38;;;31.50;;
34505;SDS011;20748;42.632;23.198;2022-12-24T15:04:18;93.85;;;41.35;;
34505;SDS011;20748;42.632;23.198;2022-12-24T15:06:52;46.08;;;22.92;;
34505;SDS011;20748;42.632;23.198;2022-12-24T15:09:29;41.20;;;21.33;;
34505;SDS011;20748;42.632;23.198;2022-12-24T15:12:04;61.15;;;30.98;;
34505;SDS011;20748;42.632;23.198;2022-12-24T15:14:39;61.63;;;29.38;;
34505;SDS011;20748;42.632;23.198;2022-12-24T15:17:14;62.67;;;29.35;;
34505;SDS011;20748;42.632;23.198;2022-12-24T15:19:49;61.75;;;29.15;;
34505;SDS011;20748;42.632;23.198;2022-12-24T15:22:24;78.07;;;36.50;;
34505;SDS011;20748;42.632;23.198;2022-12-24T15:24:59;87.05;;;38.78;;
34505;SDS011;20748;42.632;23.198;2022-12-24T15:27:32;93.22;;;39.00;;
34505;SDS011;20748;42.632;23.198;2022-12-24T15:30:11;69.50;;;34.35;;
34505;SDS011;20748;42.632;23.198;2022-12-24T15:32:46;60.25;;;30.50;;